N4710F KDAL-KGLS
Flight info
| Callsign | N4710F |
|---|---|
| Flight time | 1h 39m |
| Altitude | 9000 |
| Route | RAMBL6 TNV RAWUF SEPOY |
| Aircraft | DA50/L-VGDW/C |
Departure
| Time | 2026-05-05 02:31 |
|---|---|
| Airport | Dallas Love Field (KDAL) |
Arrival
| Time | 2026-05-05 04:11 |
|---|---|
| Airport | Scholes International At Galveston Airport (KGLS) |
| Time | Latitude | Longitude | Altitude | Speed | Heading |
|---|---|---|---|---|---|
| 2026-05-05 02:19 | 32.85488 | -96.85088 | 478 ft | 0 kts | 325° |
| 2026-05-05 02:24 | 32.85492 | -96.85094 | 478 ft | 2 kts | 290° |
| 2026-05-05 02:24 | 32.85488 | -96.85098 | 478 ft | 0 kts | 181° |
| 2026-05-05 02:24 | 32.85479 | -96.85098 | 478 ft | 1 kts | 175° |
| 2026-05-05 02:24 | 32.85469 | -96.85096 | 478 ft | 1 kts | 174° |
| 2026-05-05 02:25 | 32.85455 | -96.85094 | 478 ft | 3 kts | 170° |
| 2026-05-05 02:25 | 32.85428 | -96.85096 | 478 ft | 3 kts | 248° |
| 2026-05-05 02:25 | 32.85427 | -96.85101 | 478 ft | 0 kts | 273° |
| 2026-05-05 02:25 | 32.85429 | -96.85106 | 478 ft | 1 kts | 294° |
| 2026-05-05 02:26 | 32.85452 | -96.85161 | 477 ft | 15 kts | 303° |
| 2026-05-05 02:26 | 32.85559 | -96.85290 | 475 ft | 27 kts | 314° |
| 2026-05-05 02:26 | 32.85712 | -96.85474 | 469 ft | 29 kts | 321° |
| 2026-05-05 02:26 | 32.85780 | -96.85560 | 466 ft | 0 kts | 278° |
| 2026-05-05 02:27 | 32.85777 | -96.85589 | 466 ft | 8 kts | 251° |
| 2026-05-05 02:28 | 32.85762 | -96.85621 | 465 ft | 0 kts | 216° |
| 2026-05-05 02:29 | 32.85740 | -96.85636 | 466 ft | 9 kts | 206° |
| 2026-05-05 02:30 | 32.85666 | -96.85619 | 467 ft | 15 kts | 140° |
| 2026-05-05 02:30 | 32.85499 | -96.85420 | 475 ft | 57 kts | 135° |
| 2026-05-05 02:30 | 32.85129 | -96.84997 | 480 ft | 84 kts | 135° |
| 2026-05-05 02:30 | 32.84777 | -96.84546 | 706 ft | 69 kts | 135° |
| 2026-05-05 02:31 | 32.84538 | -96.84209 | 828 ft | 71 kts | 131° |
| 2026-05-05 02:31 | 32.84348 | -96.83914 | 995 ft | 66 kts | 133° |
| 2026-05-05 02:31 | 32.83935 | -96.83580 | 1266 ft | 64 kts | 158° |
| 2026-05-05 02:32 | 32.83562 | -96.83299 | 1475 ft | 67 kts | 139° |
| 2026-05-05 02:32 | 32.83281 | -96.82851 | 1701 ft | 68 kts | 127° |
| 2026-05-05 02:32 | 32.82923 | -96.82450 | 1832 ft | 79 kts | 158° |
| 2026-05-05 02:32 | 32.82449 | -96.82393 | 2182 ft | 70 kts | 191° |
| 2026-05-05 02:33 | 32.82016 | -96.82727 | 2471 ft | 71 kts | 216° |
| 2026-05-05 02:33 | 32.81629 | -96.83083 | 2699 ft | 77 kts | 211° |
| 2026-05-05 02:33 | 32.81239 | -96.83411 | 3049 ft | 68 kts | 203° |
| 2026-05-05 02:33 | 32.80866 | -96.83736 | 3362 ft | 63 kts | 221° |
| 2026-05-05 02:34 | 32.80555 | -96.84146 | 3609 ft | 68 kts | 216° |
| 2026-05-05 02:34 | 32.80166 | -96.84403 | 3883 ft | 68 kts | 207° |
| 2026-05-05 02:34 | 32.79824 | -96.84743 | 4197 ft | 64 kts | 231° |
| 2026-05-05 02:34 | 32.79634 | -96.85258 | 4464 ft | 68 kts | 246° |
| 2026-05-05 02:35 | 32.79530 | -96.85838 | 4703 ft | 76 kts | 257° |
| 2026-05-05 02:35 | 32.79540 | -96.86437 | 5012 ft | 72 kts | 259° |
| 2026-05-05 02:35 | 32.79407 | -96.87003 | 5266 ft | 71 kts | 238° |
| 2026-05-05 02:35 | 32.79140 | -96.87479 | 5523 ft | 72 kts | 231° |
| 2026-05-05 02:36 | 32.78875 | -96.87993 | 5773 ft | 76 kts | 237° |
| 2026-05-05 02:36 | 32.78597 | -96.88542 | 6043 ft | 77 kts | 231° |
| 2026-05-05 02:36 | 32.78252 | -96.89052 | 6295 ft | 80 kts | 231° |
| 2026-05-05 02:36 | 32.77916 | -96.89565 | 6588 ft | 80 kts | 229° |
| 2026-05-05 02:37 | 32.77530 | -96.90046 | 6854 ft | 81 kts | 224° |
| 2026-05-05 02:37 | 32.77132 | -96.90517 | 7131 ft | 82 kts | 226° |
| 2026-05-05 02:37 | 32.76734 | -96.91016 | 7395 ft | 84 kts | 226° |
| 2026-05-05 02:37 | 32.76328 | -96.91501 | 7668 ft | 85 kts | 226° |
| 2026-05-05 02:38 | 32.75911 | -96.91992 | 7943 ft | 85 kts | 226° |
| 2026-05-05 02:38 | 32.75483 | -96.92491 | 8220 ft | 86 kts | 226° |
| 2026-05-05 02:38 | 32.75061 | -96.92986 | 8496 ft | 86 kts | 227° |
| 2026-05-05 02:38 | 32.74654 | -96.93503 | 8771 ft | 86 kts | 230° |
| 2026-05-05 02:39 | 32.74246 | -96.94057 | 8966 ft | 96 kts | 231° |
| 2026-05-05 02:39 | 32.73761 | -96.94724 | 9006 ft | 117 kts | 231° |
| 2026-05-05 02:39 | 32.73203 | -96.95506 | 9005 ft | 133 kts | 232° |
| 2026-05-05 02:39 | 32.72617 | -96.96411 | 9000 ft | 143 kts | 233° |
| 2026-05-05 02:40 | 32.72004 | -96.97374 | 8996 ft | 148 kts | 233° |
| 2026-05-05 02:40 | 32.71377 | -96.98360 | 8994 ft | 152 kts | 233° |
| 2026-05-05 02:40 | 32.70728 | -96.99367 | 8994 ft | 153 kts | 231° |
| 2026-05-05 02:40 | 32.70003 | -97.00288 | 8995 ft | 155 kts | 226° |
| 2026-05-05 02:41 | 32.69232 | -97.01182 | 8994 ft | 155 kts | 223° |
| 2026-05-05 02:41 | 32.68335 | -97.01921 | 8996 ft | 157 kts | 211° |
| 2026-05-05 02:41 | 32.67347 | -97.02481 | 8994 ft | 160 kts | 196° |
| 2026-05-05 02:41 | 32.66236 | -97.02550 | 9002 ft | 163 kts | 176° |
| 2026-05-05 02:42 | 32.65166 | -97.02072 | 9003 ft | 168 kts | 156° |
| 2026-05-05 02:42 | 32.64126 | -97.01414 | 8999 ft | 169 kts | 155° |
| 2026-05-05 02:42 | 32.63109 | -97.00720 | 8999 ft | 170 kts | 152° |
| 2026-05-05 02:42 | 32.62105 | -96.99986 | 9000 ft | 170 kts | 152° |
| 2026-05-05 02:43 | 32.61096 | -96.99245 | 9000 ft | 170 kts | 152° |
| 2026-05-05 02:43 | 32.60091 | -96.98527 | 9002 ft | 170 kts | 152° |
| 2026-05-05 02:43 | 32.59070 | -96.97810 | 9004 ft | 170 kts | 153° |
| 2026-05-05 02:43 | 32.58058 | -96.97103 | 9005 ft | 170 kts | 153° |
| 2026-05-05 02:44 | 32.57027 | -96.96388 | 9006 ft | 170 kts | 153° |
| 2026-05-05 02:44 | 32.55986 | -96.95729 | 9008 ft | 170 kts | 155° |
| 2026-05-05 02:44 | 32.54944 | -96.95086 | 9009 ft | 168 kts | 155° |
| 2026-05-05 02:44 | 32.53909 | -96.94451 | 9010 ft | 168 kts | 156° |
| 2026-05-05 02:45 | 32.52873 | -96.93816 | 9011 ft | 167 kts | 155° |
| 2026-05-05 02:45 | 32.51846 | -96.93188 | 9013 ft | 167 kts | 155° |
| 2026-05-05 02:45 | 32.50814 | -96.92559 | 9014 ft | 167 kts | 155° |
| 2026-05-05 02:45 | 32.49788 | -96.91936 | 9015 ft | 167 kts | 155° |
| 2026-05-05 02:46 | 32.48758 | -96.91311 | 9016 ft | 166 kts | 155° |
| 2026-05-05 02:46 | 32.47723 | -96.90684 | 9018 ft | 166 kts | 155° |
| 2026-05-05 02:46 | 32.46695 | -96.90063 | 9018 ft | 166 kts | 155° |
| 2026-05-05 02:46 | 32.45664 | -96.89439 | 9018 ft | 166 kts | 155° |
| 2026-05-05 02:47 | 32.44637 | -96.88818 | 9018 ft | 166 kts | 155° |
| 2026-05-05 02:47 | 32.43602 | -96.88192 | 9018 ft | 166 kts | 155° |
| 2026-05-05 02:47 | 32.42567 | -96.87566 | 9018 ft | 166 kts | 155° |
| 2026-05-05 02:47 | 32.41544 | -96.86948 | 9018 ft | 166 kts | 155° |
| 2026-05-05 02:48 | 32.40507 | -96.86320 | 9018 ft | 166 kts | 155° |
| 2026-05-05 02:48 | 32.39490 | -96.85706 | 9018 ft | 166 kts | 155° |
| 2026-05-05 02:48 | 32.38449 | -96.85075 | 9018 ft | 166 kts | 155° |
| 2026-05-05 02:48 | 32.37417 | -96.84451 | 9018 ft | 166 kts | 155° |
| 2026-05-05 02:49 | 32.36385 | -96.83828 | 9018 ft | 166 kts | 155° |
| 2026-05-05 02:49 | 32.35367 | -96.83212 | 9018 ft | 166 kts | 155° |
| 2026-05-05 02:49 | 32.34333 | -96.82586 | 9018 ft | 166 kts | 155° |
| 2026-05-05 02:49 | 32.33298 | -96.81960 | 9018 ft | 166 kts | 155° |
| 2026-05-05 02:50 | 32.32276 | -96.81342 | 9018 ft | 166 kts | 155° |
| 2026-05-05 02:50 | 32.31243 | -96.80717 | 9019 ft | 166 kts | 155° |
| 2026-05-05 02:50 | 32.30216 | -96.80096 | 9020 ft | 166 kts | 155° |
| 2026-05-05 02:50 | 32.29185 | -96.79471 | 9021 ft | 166 kts | 155° |
| 2026-05-05 02:51 | 32.28149 | -96.78847 | 9022 ft | 166 kts | 156° |
| 2026-05-05 02:51 | 32.27107 | -96.78264 | 9024 ft | 166 kts | 158° |
| 2026-05-05 02:51 | 32.26056 | -96.77702 | 9026 ft | 166 kts | 158° |
| 2026-05-05 02:51 | 32.25004 | -96.77141 | 9028 ft | 166 kts | 158° |
| 2026-05-05 02:52 | 32.23964 | -96.76587 | 9029 ft | 166 kts | 158° |
| 2026-05-05 02:52 | 32.22911 | -96.76025 | 9031 ft | 166 kts | 158° |
| 2026-05-05 02:52 | 32.21855 | -96.75496 | 9029 ft | 165 kts | 163° |
| 2026-05-05 02:52 | 32.20764 | -96.75063 | 9034 ft | 165 kts | 164° |
| 2026-05-05 02:53 | 32.19680 | -96.74635 | 9037 ft | 164 kts | 164° |
| 2026-05-05 02:53 | 32.18601 | -96.74210 | 9039 ft | 164 kts | 164° |
| 2026-05-05 02:53 | 32.17509 | -96.73780 | 9041 ft | 164 kts | 164° |
| 2026-05-05 02:53 | 32.16432 | -96.73355 | 9043 ft | 164 kts | 164° |
| 2026-05-05 02:54 | 32.15348 | -96.72931 | 9044 ft | 164 kts | 165° |
| 2026-05-05 02:54 | 32.14256 | -96.72533 | 9044 ft | 164 kts | 167° |
| 2026-05-05 02:54 | 32.13154 | -96.72169 | 9045 ft | 164 kts | 167° |
| 2026-05-05 02:54 | 32.12051 | -96.71808 | 9046 ft | 164 kts | 167° |
| 2026-05-05 02:55 | 32.10966 | -96.71452 | 9046 ft | 164 kts | 167° |
| 2026-05-05 02:55 | 32.09859 | -96.71088 | 9046 ft | 164 kts | 167° |
| 2026-05-05 02:55 | 32.08762 | -96.70728 | 9046 ft | 164 kts | 167° |
| 2026-05-05 02:55 | 32.07667 | -96.70369 | 9046 ft | 164 kts | 167° |
| 2026-05-05 02:56 | 32.06570 | -96.70009 | 9045 ft | 164 kts | 167° |
| 2026-05-05 02:56 | 32.05473 | -96.69649 | 9046 ft | 164 kts | 167° |
| 2026-05-05 02:56 | 32.04361 | -96.69284 | 9046 ft | 164 kts | 167° |
| 2026-05-05 02:56 | 32.03274 | -96.68927 | 9046 ft | 164 kts | 167° |
| 2026-05-05 02:57 | 32.02175 | -96.68566 | 9046 ft | 164 kts | 167° |
| 2026-05-05 02:57 | 32.01081 | -96.68208 | 9046 ft | 164 kts | 167° |
| 2026-05-05 02:57 | 31.99969 | -96.67906 | 9044 ft | 163 kts | 173° |
| 2026-05-05 02:57 | 31.98853 | -96.67681 | 9046 ft | 163 kts | 173° |
| 2026-05-05 02:58 | 31.97736 | -96.67460 | 9047 ft | 163 kts | 173° |
| 2026-05-05 02:58 | 31.96624 | -96.67241 | 9047 ft | 163 kts | 173° |
| 2026-05-05 02:58 | 31.95503 | -96.67020 | 9048 ft | 163 kts | 173° |
| 2026-05-05 02:58 | 31.94385 | -96.66801 | 9049 ft | 163 kts | 173° |
| 2026-05-05 02:59 | 31.93275 | -96.66585 | 9049 ft | 163 kts | 173° |
| 2026-05-05 02:59 | 31.92156 | -96.66367 | 9050 ft | 163 kts | 173° |
| 2026-05-05 02:59 | 31.91050 | -96.66132 | 9052 ft | 163 kts | 170° |
| 2026-05-05 02:59 | 31.89948 | -96.65804 | 9052 ft | 164 kts | 167° |
| 2026-05-05 03:00 | 31.88850 | -96.65452 | 9053 ft | 164 kts | 167° |
| 2026-05-05 03:00 | 31.87751 | -96.65097 | 9053 ft | 164 kts | 167° |
| 2026-05-05 03:00 | 31.86651 | -96.64743 | 9054 ft | 164 kts | 167° |
| 2026-05-05 03:00 | 31.85555 | -96.64380 | 9055 ft | 164 kts | 166° |
| 2026-05-05 03:01 | 31.84454 | -96.63979 | 9055 ft | 164 kts | 165° |
| 2026-05-05 03:01 | 31.83368 | -96.63573 | 9056 ft | 164 kts | 164° |
| 2026-05-05 03:01 | 31.82294 | -96.63142 | 9056 ft | 165 kts | 163° |
| 2026-05-05 03:01 | 31.81213 | -96.62700 | 9056 ft | 165 kts | 163° |
| 2026-05-05 03:02 | 31.80131 | -96.62257 | 9056 ft | 165 kts | 163° |
| 2026-05-05 03:02 | 31.79050 | -96.61813 | 9056 ft | 165 kts | 163° |
| 2026-05-05 03:02 | 31.77978 | -96.61373 | 9056 ft | 165 kts | 163° |
| 2026-05-05 03:02 | 31.76888 | -96.60926 | 9056 ft | 165 kts | 163° |
| 2026-05-05 03:03 | 31.75817 | -96.60487 | 9056 ft | 165 kts | 163° |
| 2026-05-05 03:03 | 31.74734 | -96.60043 | 9056 ft | 165 kts | 163° |
| 2026-05-05 03:03 | 31.73658 | -96.59602 | 9056 ft | 165 kts | 163° |
| 2026-05-05 03:03 | 31.72565 | -96.59153 | 9056 ft | 165 kts | 163° |
| 2026-05-05 03:04 | 31.71485 | -96.58710 | 9056 ft | 165 kts | 163° |
| 2026-05-05 03:04 | 31.70406 | -96.58267 | 9056 ft | 165 kts | 163° |
| 2026-05-05 03:04 | 31.69322 | -96.57823 | 9056 ft | 165 kts | 163° |
| 2026-05-05 03:04 | 31.68249 | -96.57383 | 9056 ft | 165 kts | 163° |
| 2026-05-05 03:05 | 31.67167 | -96.56939 | 9056 ft | 165 kts | 163° |
| 2026-05-05 03:05 | 31.66090 | -96.56496 | 9056 ft | 165 kts | 163° |
| 2026-05-05 03:05 | 31.65007 | -96.56052 | 9056 ft | 165 kts | 163° |
| 2026-05-05 03:05 | 31.63936 | -96.55613 | 9056 ft | 165 kts | 163° |
| 2026-05-05 03:06 | 31.62843 | -96.55165 | 9056 ft | 165 kts | 163° |
| 2026-05-05 03:06 | 31.61767 | -96.54723 | 9056 ft | 165 kts | 163° |
| 2026-05-05 03:06 | 31.60684 | -96.54289 | 9055 ft | 164 kts | 164° |
| 2026-05-05 03:06 | 31.59605 | -96.53870 | 9056 ft | 164 kts | 164° |
| 2026-05-05 03:07 | 31.58524 | -96.53451 | 9056 ft | 164 kts | 164° |
| 2026-05-05 03:07 | 31.57426 | -96.53026 | 9056 ft | 164 kts | 164° |
| 2026-05-05 03:07 | 31.56339 | -96.52605 | 9056 ft | 164 kts | 164° |
| 2026-05-05 03:07 | 31.55264 | -96.52188 | 9056 ft | 164 kts | 164° |
| 2026-05-05 03:08 | 31.54185 | -96.51767 | 9068 ft | 164 kts | 164° |
| 2026-05-05 03:08 | 31.53092 | -96.51329 | 9073 ft | 164 kts | 164° |
| 2026-05-05 03:08 | 31.52007 | -96.50897 | 9074 ft | 165 kts | 165° |
| 2026-05-05 03:08 | 31.50936 | -96.50473 | 9074 ft | 165 kts | 164° |
| 2026-05-05 03:09 | 31.49848 | -96.50040 | 9074 ft | 165 kts | 164° |
| 2026-05-05 03:09 | 31.48757 | -96.49609 | 9074 ft | 165 kts | 164° |
| 2026-05-05 03:09 | 31.47679 | -96.49179 | 9074 ft | 165 kts | 164° |
| 2026-05-05 03:09 | 31.46585 | -96.48740 | 9074 ft | 165 kts | 164° |
| 2026-05-05 03:10 | 31.45495 | -96.48309 | 9074 ft | 165 kts | 164° |
| 2026-05-05 03:10 | 31.44416 | -96.47890 | 9074 ft | 165 kts | 166° |
| 2026-05-05 03:10 | 31.43318 | -96.47496 | 9074 ft | 165 kts | 166° |
| 2026-05-05 03:10 | 31.42221 | -96.47109 | 9074 ft | 165 kts | 166° |
| 2026-05-05 03:11 | 31.41123 | -96.46725 | 9074 ft | 165 kts | 166° |
| 2026-05-05 03:11 | 31.40019 | -96.46333 | 9074 ft | 165 kts | 166° |
| 2026-05-05 03:11 | 31.38927 | -96.45947 | 9074 ft | 165 kts | 166° |
| 2026-05-05 03:11 | 31.37827 | -96.45557 | 9074 ft | 165 kts | 166° |
| 2026-05-05 03:12 | 31.36733 | -96.45166 | 9074 ft | 165 kts | 166° |
| 2026-05-05 03:12 | 31.35646 | -96.44783 | 9074 ft | 165 kts | 166° |
| 2026-05-05 03:12 | 31.34543 | -96.44395 | 9074 ft | 165 kts | 166° |
| 2026-05-05 03:12 | 31.33454 | -96.44006 | 9075 ft | 165 kts | 166° |
| 2026-05-05 03:13 | 31.32354 | -96.43622 | 9076 ft | 165 kts | 166° |
| 2026-05-05 03:13 | 31.31257 | -96.43233 | 9076 ft | 165 kts | 166° |
| 2026-05-05 03:13 | 31.30162 | -96.42847 | 9077 ft | 165 kts | 166° |
| 2026-05-05 03:13 | 31.29068 | -96.42463 | 9078 ft | 165 kts | 166° |
| 2026-05-05 03:14 | 31.27968 | -96.42077 | 9079 ft | 165 kts | 166° |
| 2026-05-05 03:14 | 31.26884 | -96.41696 | 9080 ft | 165 kts | 166° |
| 2026-05-05 03:14 | 31.25782 | -96.41308 | 9081 ft | 165 kts | 166° |
| 2026-05-05 03:14 | 31.24685 | -96.40922 | 9083 ft | 165 kts | 166° |
| 2026-05-05 03:15 | 31.23591 | -96.40534 | 9084 ft | 165 kts | 166° |
| 2026-05-05 03:15 | 31.22493 | -96.40146 | 9086 ft | 165 kts | 166° |
| 2026-05-05 03:15 | 31.21403 | -96.39763 | 9087 ft | 165 kts | 166° |
| 2026-05-05 03:15 | 31.20312 | -96.39379 | 9089 ft | 165 kts | 166° |
| 2026-05-05 03:16 | 31.19216 | -96.38993 | 9091 ft | 165 kts | 166° |
| 2026-05-05 03:16 | 31.18108 | -96.38600 | 9094 ft | 165 kts | 166° |
| 2026-05-05 03:16 | 31.17028 | -96.38218 | 9096 ft | 165 kts | 166° |
| 2026-05-05 03:16 | 31.15927 | -96.37830 | 9099 ft | 165 kts | 166° |
| 2026-05-05 03:17 | 31.14823 | -96.37442 | 9101 ft | 165 kts | 166° |
| 2026-05-05 03:17 | 31.13734 | -96.37056 | 9104 ft | 165 kts | 166° |
| 2026-05-05 03:17 | 31.12643 | -96.36667 | 9106 ft | 165 kts | 166° |
| 2026-05-05 03:17 | 31.11535 | -96.36274 | 9108 ft | 165 kts | 166° |
| 2026-05-05 03:18 | 31.10447 | -96.35888 | 9110 ft | 165 kts | 166° |
| 2026-05-05 03:18 | 31.09349 | -96.35498 | 9112 ft | 165 kts | 166° |
| 2026-05-05 03:18 | 31.08256 | -96.35111 | 9114 ft | 165 kts | 166° |
| 2026-05-05 03:18 | 31.07164 | -96.34721 | 9113 ft | 165 kts | 166° |
| 2026-05-05 03:19 | 31.04973 | -96.33944 | 9115 ft | 164 kts | 166° |
| 2026-05-05 03:19 | 31.03878 | -96.33556 | 9117 ft | 164 kts | 166° |
| 2026-05-05 03:19 | 31.02788 | -96.33173 | 9117 ft | 164 kts | 166° |
| 2026-05-05 03:20 | 31.01683 | -96.32788 | 9117 ft | 164 kts | 166° |
| 2026-05-05 03:20 | 31.00599 | -96.32372 | 9118 ft | 165 kts | 165° |
| 2026-05-05 03:20 | 30.99517 | -96.31950 | 9117 ft | 165 kts | 165° |
| 2026-05-05 03:20 | 30.98421 | -96.31525 | 9118 ft | 165 kts | 164° |
| 2026-05-05 03:21 | 30.97336 | -96.31110 | 9118 ft | 165 kts | 164° |
| 2026-05-05 03:21 | 30.96243 | -96.30692 | 9118 ft | 165 kts | 165° |
| 2026-05-05 03:21 | 30.95153 | -96.30276 | 9118 ft | 165 kts | 164° |
| 2026-05-05 03:21 | 30.94058 | -96.29861 | 9118 ft | 165 kts | 165° |
| 2026-05-05 03:22 | 30.92962 | -96.29444 | 9118 ft | 165 kts | 164° |
| 2026-05-05 03:22 | 30.91874 | -96.29035 | 9118 ft | 166 kts | 164° |
| 2026-05-05 03:22 | 30.90776 | -96.28623 | 9118 ft | 166 kts | 164° |
| 2026-05-05 03:22 | 30.89676 | -96.28213 | 9118 ft | 166 kts | 164° |
| 2026-05-05 03:23 | 30.88571 | -96.27805 | 9118 ft | 166 kts | 164° |
| 2026-05-05 03:23 | 30.87477 | -96.27402 | 9118 ft | 166 kts | 164° |
| 2026-05-05 03:23 | 30.86379 | -96.27000 | 9118 ft | 166 kts | 165° |
| 2026-05-05 03:23 | 30.85290 | -96.26598 | 9118 ft | 166 kts | 165° |
| 2026-05-05 03:24 | 30.84184 | -96.26190 | 9118 ft | 166 kts | 164° |
| 2026-05-05 03:24 | 30.83087 | -96.25785 | 9118 ft | 166 kts | 164° |
| 2026-05-05 03:24 | 30.81994 | -96.25384 | 9118 ft | 166 kts | 164° |
| 2026-05-05 03:24 | 30.80894 | -96.24979 | 9118 ft | 166 kts | 164° |
| 2026-05-05 03:25 | 30.79789 | -96.24573 | 9118 ft | 166 kts | 164° |
| 2026-05-05 03:25 | 30.78685 | -96.24166 | 9118 ft | 166 kts | 164° |
| 2026-05-05 03:25 | 30.77597 | -96.23763 | 9118 ft | 166 kts | 164° |
| 2026-05-05 03:25 | 30.76499 | -96.23322 | 9118 ft | 166 kts | 162° |
| 2026-05-05 03:26 | 30.75409 | -96.22874 | 9118 ft | 166 kts | 162° |
| 2026-05-05 03:26 | 30.74328 | -96.22427 | 9118 ft | 166 kts | 162° |
| 2026-05-05 03:26 | 30.73237 | -96.21975 | 9118 ft | 166 kts | 162° |
| 2026-05-05 03:26 | 30.72141 | -96.21524 | 9118 ft | 166 kts | 162° |
| 2026-05-05 03:27 | 30.71062 | -96.21079 | 9118 ft | 166 kts | 162° |
| 2026-05-05 03:27 | 30.69963 | -96.20624 | 9117 ft | 166 kts | 162° |
| 2026-05-05 03:27 | 30.68874 | -96.20174 | 9115 ft | 166 kts | 162° |
| 2026-05-05 03:27 | 30.67796 | -96.19727 | 9114 ft | 166 kts | 162° |
| 2026-05-05 03:28 | 30.66708 | -96.19281 | 9113 ft | 166 kts | 162° |
| 2026-05-05 03:28 | 30.65613 | -96.18829 | 9112 ft | 166 kts | 162° |
| 2026-05-05 03:28 | 30.64519 | -96.18379 | 9110 ft | 166 kts | 162° |
| 2026-05-05 03:28 | 30.63432 | -96.17934 | 9109 ft | 166 kts | 162° |
| 2026-05-05 03:29 | 30.62338 | -96.17486 | 9108 ft | 166 kts | 162° |
| 2026-05-05 03:29 | 30.61254 | -96.17042 | 9107 ft | 166 kts | 162° |
| 2026-05-05 03:29 | 30.60164 | -96.16595 | 9105 ft | 166 kts | 162° |
| 2026-05-05 03:29 | 30.59069 | -96.16146 | 9104 ft | 166 kts | 162° |
| 2026-05-05 03:30 | 30.57990 | -96.15704 | 9103 ft | 166 kts | 162° |
| 2026-05-05 03:30 | 30.56901 | -96.15259 | 9102 ft | 166 kts | 162° |
| 2026-05-05 03:30 | 30.55802 | -96.14810 | 9100 ft | 166 kts | 162° |
| 2026-05-05 03:30 | 30.54723 | -96.14370 | 9100 ft | 166 kts | 162° |
| 2026-05-05 03:31 | 30.53635 | -96.13926 | 9100 ft | 166 kts | 162° |
| 2026-05-05 03:31 | 30.52540 | -96.13479 | 9100 ft | 166 kts | 162° |
| 2026-05-05 03:31 | 30.51452 | -96.13064 | 9099 ft | 166 kts | 165° |
| 2026-05-05 03:31 | 30.50338 | -96.12680 | 9100 ft | 166 kts | 165° |
| 2026-05-05 03:32 | 30.49241 | -96.12305 | 9100 ft | 166 kts | 165° |
| 2026-05-05 03:32 | 30.48135 | -96.11945 | 9100 ft | 165 kts | 166° |
| 2026-05-05 03:32 | 30.47031 | -96.11591 | 9100 ft | 165 kts | 166° |
| 2026-05-05 03:32 | 30.45909 | -96.11231 | 9100 ft | 165 kts | 166° |
| 2026-05-05 03:33 | 30.44809 | -96.10880 | 9100 ft | 165 kts | 166° |
| 2026-05-05 03:33 | 30.43689 | -96.10521 | 9100 ft | 165 kts | 166° |
| 2026-05-05 03:33 | 30.42584 | -96.10168 | 9100 ft | 165 kts | 166° |
| 2026-05-05 03:33 | 30.41474 | -96.09817 | 9100 ft | 165 kts | 166° |
| 2026-05-05 03:34 | 30.40374 | -96.09470 | 9100 ft | 165 kts | 166° |
| 2026-05-05 03:34 | 30.39262 | -96.09119 | 9101 ft | 165 kts | 166° |
| 2026-05-05 03:34 | 30.38147 | -96.08766 | 9102 ft | 165 kts | 166° |
| 2026-05-05 03:34 | 30.37041 | -96.08416 | 9104 ft | 165 kts | 166° |
| 2026-05-05 03:35 | 30.35938 | -96.08067 | 9106 ft | 165 kts | 166° |
| 2026-05-05 03:35 | 30.34819 | -96.07713 | 9109 ft | 165 kts | 166° |
| 2026-05-05 03:35 | 30.33724 | -96.07367 | 9111 ft | 165 kts | 166° |
| 2026-05-05 03:35 | 30.32602 | -96.07012 | 9114 ft | 165 kts | 166° |
| 2026-05-05 03:36 | 30.31506 | -96.06666 | 9129 ft | 164 kts | 166° |
| 2026-05-05 03:36 | 30.30402 | -96.06316 | 9200 ft | 162 kts | 166° |
| 2026-05-05 03:36 | 30.29353 | -96.05907 | 9269 ft | 163 kts | 149° |
| 2026-05-05 03:36 | 30.28491 | -96.05055 | 9359 ft | 164 kts | 137° |
| 2026-05-05 03:37 | 30.27689 | -96.04121 | 9457 ft | 163 kts | 134° |
| 2026-05-05 03:37 | 30.26918 | -96.03172 | 9580 ft | 161 kts | 133° |
| 2026-05-05 03:37 | 30.26162 | -96.02213 | 9704 ft | 161 kts | 133° |
| 2026-05-05 03:37 | 30.25416 | -96.01254 | 9828 ft | 160 kts | 132° |
| 2026-05-05 03:38 | 30.24674 | -96.00291 | 9953 ft | 160 kts | 132° |
| 2026-05-05 03:38 | 30.23935 | -95.99326 | 10078 ft | 160 kts | 132° |
| 2026-05-05 03:38 | 30.23206 | -95.98371 | 10202 ft | 160 kts | 131° |
| 2026-05-05 03:38 | 30.22470 | -95.97405 | 10328 ft | 160 kts | 131° |
| 2026-05-05 03:39 | 30.21730 | -95.96432 | 10365 ft | 166 kts | 131° |
| 2026-05-05 03:39 | 30.20955 | -95.95412 | 10310 ft | 173 kts | 131° |
| 2026-05-05 03:39 | 30.20148 | -95.94350 | 10299 ft | 175 kts | 131° |
| 2026-05-05 03:39 | 30.19353 | -95.93303 | 10296 ft | 175 kts | 131° |
| 2026-05-05 03:40 | 30.18549 | -95.92246 | 10294 ft | 174 kts | 131° |
| 2026-05-05 03:40 | 30.17756 | -95.91200 | 10293 ft | 173 kts | 131° |
| 2026-05-05 03:40 | 30.16959 | -95.90153 | 10292 ft | 173 kts | 131° |
| 2026-05-05 03:40 | 30.16167 | -95.89111 | 10292 ft | 172 kts | 131° |
| 2026-05-05 03:41 | 30.15382 | -95.88078 | 10291 ft | 172 kts | 131° |
| 2026-05-05 03:41 | 30.14592 | -95.87041 | 10290 ft | 172 kts | 131° |
| 2026-05-05 03:41 | 30.13793 | -95.85991 | 10290 ft | 172 kts | 131° |
| 2026-05-05 03:41 | 30.13011 | -95.84963 | 10289 ft | 172 kts | 131° |
| 2026-05-05 03:42 | 30.12224 | -95.83930 | 10288 ft | 172 kts | 131° |
| 2026-05-05 03:42 | 30.11429 | -95.82886 | 10287 ft | 172 kts | 131° |
| 2026-05-05 03:42 | 30.10638 | -95.81847 | 10287 ft | 172 kts | 131° |
| 2026-05-05 03:42 | 30.09852 | -95.80815 | 10286 ft | 172 kts | 131° |
| 2026-05-05 03:43 | 30.09056 | -95.79771 | 10285 ft | 172 kts | 131° |
| 2026-05-05 03:43 | 30.08265 | -95.78733 | 10284 ft | 172 kts | 131° |
| 2026-05-05 03:43 | 30.07474 | -95.77696 | 10284 ft | 172 kts | 131° |
| 2026-05-05 03:43 | 30.06686 | -95.76662 | 10284 ft | 172 kts | 131° |
| 2026-05-05 03:44 | 30.05903 | -95.75637 | 10284 ft | 172 kts | 131° |
| 2026-05-05 03:44 | 30.05104 | -95.74590 | 10285 ft | 172 kts | 131° |
| 2026-05-05 03:44 | 30.04325 | -95.73570 | 10285 ft | 172 kts | 131° |
| 2026-05-05 03:44 | 30.03533 | -95.72532 | 10286 ft | 172 kts | 131° |
| 2026-05-05 03:45 | 30.02743 | -95.71497 | 10286 ft | 172 kts | 131° |
| 2026-05-05 03:45 | 30.01947 | -95.70456 | 10287 ft | 172 kts | 131° |
| 2026-05-05 03:45 | 30.01159 | -95.69425 | 10287 ft | 172 kts | 131° |
| 2026-05-05 03:45 | 30.00366 | -95.68388 | 10288 ft | 172 kts | 131° |
| 2026-05-05 03:46 | 29.99574 | -95.67352 | 10288 ft | 172 kts | 131° |
| 2026-05-05 03:46 | 29.98782 | -95.66316 | 10288 ft | 172 kts | 131° |
| 2026-05-05 03:46 | 29.97998 | -95.65291 | 10288 ft | 172 kts | 131° |
| 2026-05-05 03:46 | 29.97204 | -95.64253 | 10288 ft | 172 kts | 131° |
| 2026-05-05 03:47 | 29.96415 | -95.63222 | 10288 ft | 172 kts | 131° |
| 2026-05-05 03:47 | 29.95619 | -95.62182 | 10288 ft | 172 kts | 131° |
| 2026-05-05 03:47 | 29.94828 | -95.61150 | 10288 ft | 172 kts | 131° |
| 2026-05-05 03:47 | 29.94033 | -95.60112 | 10288 ft | 172 kts | 131° |
| 2026-05-05 03:48 | 29.93242 | -95.59079 | 10287 ft | 172 kts | 131° |
| 2026-05-05 03:48 | 29.92457 | -95.58054 | 10287 ft | 172 kts | 131° |
| 2026-05-05 03:48 | 29.91662 | -95.57017 | 10286 ft | 172 kts | 131° |
| 2026-05-05 03:48 | 29.90876 | -95.55992 | 10286 ft | 172 kts | 131° |
| 2026-05-05 03:49 | 29.90085 | -95.54961 | 10286 ft | 172 kts | 131° |
| 2026-05-05 03:49 | 29.89287 | -95.53921 | 10285 ft | 172 kts | 131° |
| 2026-05-05 03:49 | 29.88494 | -95.52888 | 10285 ft | 172 kts | 131° |
| 2026-05-05 03:49 | 29.87701 | -95.51854 | 10284 ft | 172 kts | 131° |
| 2026-05-05 03:50 | 29.86909 | -95.50822 | 10285 ft | 172 kts | 131° |
| 2026-05-05 03:50 | 29.86112 | -95.49786 | 10286 ft | 172 kts | 131° |
| 2026-05-05 03:50 | 29.85328 | -95.48765 | 10287 ft | 172 kts | 131° |
| 2026-05-05 03:50 | 29.84535 | -95.47732 | 10287 ft | 172 kts | 131° |
| 2026-05-05 03:51 | 29.83743 | -95.46703 | 10288 ft | 172 kts | 131° |
| 2026-05-05 03:51 | 29.83065 | -95.45821 | 10289 ft | 172 kts | 131° |
| 2026-05-05 03:51 | 29.82491 | -95.45083 | 10332 ft | 167 kts | 130° |
| 2026-05-05 03:51 | 29.81726 | -95.44087 | 10342 ft | 166 kts | 130° |
| 2026-05-05 03:52 | 29.80965 | -95.43095 | 10344 ft | 165 kts | 130° |
| 2026-05-05 03:52 | 29.80205 | -95.42104 | 10345 ft | 165 kts | 130° |
| 2026-05-05 03:52 | 29.79456 | -95.41131 | 10345 ft | 165 kts | 130° |
| 2026-05-05 03:52 | 29.78688 | -95.40132 | 10345 ft | 165 kts | 130° |
| 2026-05-05 03:53 | 29.77933 | -95.39151 | 10345 ft | 165 kts | 130° |
| 2026-05-05 03:53 | 29.77175 | -95.38167 | 10345 ft | 165 kts | 130° |
| 2026-05-05 03:53 | 29.76417 | -95.37183 | 10345 ft | 165 kts | 130° |
| 2026-05-05 03:53 | 29.75661 | -95.36202 | 10345 ft | 165 kts | 130° |
| 2026-05-05 03:54 | 29.74894 | -95.35207 | 10345 ft | 165 kts | 130° |
| 2026-05-05 03:54 | 29.74140 | -95.34229 | 10345 ft | 165 kts | 131° |
| 2026-05-05 03:54 | 29.73382 | -95.33247 | 10345 ft | 165 kts | 131° |
| 2026-05-05 03:54 | 29.72623 | -95.32262 | 10345 ft | 165 kts | 131° |
| 2026-05-05 03:55 | 29.71861 | -95.31273 | 10345 ft | 165 kts | 131° |
| 2026-05-05 03:55 | 29.71094 | -95.30280 | 10345 ft | 165 kts | 131° |
| 2026-05-05 03:55 | 29.70335 | -95.29296 | 10345 ft | 165 kts | 131° |
| 2026-05-05 03:55 | 29.69576 | -95.28313 | 10345 ft | 165 kts | 131° |
| 2026-05-05 03:56 | 29.68816 | -95.27330 | 10345 ft | 165 kts | 131° |
| 2026-05-05 03:56 | 29.68066 | -95.26359 | 10345 ft | 165 kts | 131° |
| 2026-05-05 03:56 | 29.67296 | -95.25362 | 10345 ft | 165 kts | 131° |
| 2026-05-05 03:56 | 29.66534 | -95.24385 | 10345 ft | 165 kts | 132° |
| 2026-05-05 03:57 | 29.65788 | -95.23385 | 10347 ft | 164 kts | 127° |
| 2026-05-05 03:57 | 29.65089 | -95.22349 | 10346 ft | 165 kts | 127° |
| 2026-05-05 03:57 | 29.64395 | -95.21315 | 10345 ft | 165 kts | 127° |
| 2026-05-05 03:57 | 29.63703 | -95.20255 | 10346 ft | 164 kts | 122° |
| 2026-05-05 03:58 | 29.63195 | -95.19091 | 10347 ft | 165 kts | 114° |
| 2026-05-05 03:58 | 29.62712 | -95.17892 | 10346 ft | 165 kts | 114° |
| 2026-05-05 03:58 | 29.62232 | -95.16689 | 10345 ft | 165 kts | 114° |
| 2026-05-05 03:58 | 29.61758 | -95.15500 | 10345 ft | 165 kts | 114° |
| 2026-05-05 03:59 | 29.61283 | -95.14307 | 10345 ft | 165 kts | 114° |
| 2026-05-05 03:59 | 29.60777 | -95.13120 | 10342 ft | 165 kts | 119° |
| 2026-05-05 03:59 | 29.60169 | -95.12004 | 10345 ft | 165 kts | 121° |
| 2026-05-05 03:59 | 29.59550 | -95.10889 | 10345 ft | 165 kts | 122° |
| 2026-05-05 04:00 | 29.58938 | -95.09789 | 10345 ft | 165 kts | 122° |
| 2026-05-05 04:00 | 29.58276 | -95.08721 | 10344 ft | 165 kts | 128° |
| 2026-05-05 04:00 | 29.57567 | -95.07694 | 10345 ft | 165 kts | 128° |
| 2026-05-05 04:00 | 29.56852 | -95.06662 | 10345 ft | 165 kts | 128° |
| 2026-05-05 04:01 | 29.56134 | -95.05628 | 10345 ft | 165 kts | 128° |
| 2026-05-05 04:01 | 29.55428 | -95.04610 | 10345 ft | 165 kts | 128° |
| 2026-05-05 04:01 | 29.54706 | -95.03573 | 10345 ft | 165 kts | 128° |
| 2026-05-05 04:01 | 29.54002 | -95.02557 | 10345 ft | 165 kts | 127° |
| 2026-05-05 04:02 | 29.53285 | -95.01520 | 10345 ft | 165 kts | 128° |
| 2026-05-05 04:02 | 29.52571 | -95.00490 | 10345 ft | 165 kts | 128° |
| 2026-05-05 04:02 | 29.51858 | -94.99461 | 10345 ft | 164 kts | 128° |
| 2026-05-05 04:02 | 29.51150 | -94.98440 | 10344 ft | 163 kts | 128° |
| 2026-05-05 04:03 | 29.50440 | -94.97414 | 10207 ft | 167 kts | 128° |
| 2026-05-05 04:03 | 29.49714 | -94.96364 | 10056 ft | 166 kts | 127° |
| 2026-05-05 04:03 | 29.48992 | -94.95318 | 9844 ft | 169 kts | 127° |
| 2026-05-05 04:03 | 29.48261 | -94.94258 | 9599 ft | 172 kts | 127° |
| 2026-05-05 04:04 | 29.47513 | -94.93174 | 9326 ft | 173 kts | 127° |
| 2026-05-05 04:04 | 29.46775 | -94.92105 | 9056 ft | 174 kts | 128° |
| 2026-05-05 04:04 | 29.46009 | -94.91026 | 8780 ft | 174 kts | 128° |
| 2026-05-05 04:04 | 29.45245 | -94.89955 | 8502 ft | 172 kts | 128° |
| 2026-05-05 04:05 | 29.44496 | -94.88905 | 8225 ft | 169 kts | 128° |
| 2026-05-05 04:05 | 29.43753 | -94.87864 | 7881 ft | 171 kts | 128° |
| 2026-05-05 04:05 | 29.42904 | -94.86911 | 7496 ft | 173 kts | 153° |
| 2026-05-05 04:05 | 29.41743 | -94.86723 | 7138 ft | 170 kts | 179° |
| 2026-05-05 04:06 | 29.40585 | -94.86636 | 6785 ft | 164 kts | 174° |
| 2026-05-05 04:06 | 29.39466 | -94.86529 | 6430 ft | 158 kts | 174° |
| 2026-05-05 04:06 | 29.38456 | -94.86430 | 6048 ft | 136 kts | 174° |
| 2026-05-05 04:06 | 29.37571 | -94.86315 | 5730 ft | 116 kts | 169° |
| 2026-05-05 04:07 | 29.36851 | -94.86118 | 5386 ft | 103 kts | 166° |
| 2026-05-05 04:07 | 29.36156 | -94.86002 | 5022 ft | 100 kts | 175° |
| 2026-05-05 04:07 | 29.35480 | -94.85959 | 4672 ft | 98 kts | 176° |
| 2026-05-05 04:07 | 29.34804 | -94.85922 | 4319 ft | 97 kts | 176° |
| 2026-05-05 04:08 | 29.34136 | -94.85884 | 3969 ft | 97 kts | 176° |
| 2026-05-05 04:08 | 29.33473 | -94.85847 | 3621 ft | 97 kts | 176° |
| 2026-05-05 04:08 | 29.32806 | -94.85811 | 3271 ft | 96 kts | 176° |
| 2026-05-05 04:08 | 29.32166 | -94.85808 | 2956 ft | 91 kts | 184° |
| 2026-05-05 04:09 | 29.31538 | -94.85855 | 2602 ft | 92 kts | 181° |
| 2026-05-05 04:09 | 29.30903 | -94.85895 | 2238 ft | 92 kts | 181° |
| 2026-05-05 04:09 | 29.30274 | -94.85903 | 1880 ft | 92 kts | 179° |
| 2026-05-05 04:09 | 29.29650 | -94.85897 | 1504 ft | 91 kts | 179° |
| 2026-05-05 04:10 | 29.29036 | -94.85893 | 1074 ft | 89 kts | 179° |
| 2026-05-05 04:10 | 29.28423 | -94.85893 | 621 ft | 88 kts | 180° |
| 2026-05-05 04:10 | 29.27837 | -94.85894 | 239 ft | 83 kts | 180° |
| 2026-05-05 04:10 | 29.27309 | -94.85901 | 14 ft | 67 kts | 180° |
| 2026-05-05 04:11 | 29.26937 | -94.85915 | 7 ft | 34 kts | 182° |
| 2026-05-05 04:11 | 29.26794 | -94.85882 | 7 ft | 9 kts | 67° |
| 2026-05-05 04:11 | 29.26805 | -94.85846 | 7 ft | 8 kts | 83° |
| 2026-05-05 04:11 | 29.26792 | -94.85728 | 7 ft | 18 kts | 117° |
| 2026-05-05 04:12 | 29.26708 | -94.85608 | 7 ft | 14 kts | 90° |
| 2026-05-05 04:12 | 29.26755 | -94.85562 | 7 ft | 9 kts | 11° |
| 2026-05-05 04:12 | 29.26772 | -94.85603 | 7 ft | 0 kts | 270° |
| 2026-05-05 04:12 | 29.26772 | -94.85605 | 7 ft | 0 kts | 276° |
| 2026-05-05 04:13 | 29.26772 | -94.85608 | 7 ft | 0 kts | 283° |
| 2026-05-05 04:13 | 29.26773 | -94.85610 | 7 ft | 0 kts | 290° |
| 2026-05-05 04:13 | 29.26774 | -94.85613 | 7 ft | 0 kts | 297° |
| 2026-05-05 04:13 | 29.26775 | -94.85615 | 7 ft | 0 kts | 303° |
| 2026-05-05 04:14 | 29.26777 | -94.85616 | 7 ft | 0 kts | 310° |
| 2026-05-05 04:14 | 29.26778 | -94.85619 | 7 ft | 0 kts | 317° |
| 2026-05-05 04:14 | 29.26780 | -94.85620 | 7 ft | 0 kts | 324° |
| 2026-05-05 04:14 | 29.26782 | -94.85621 | 7 ft | 0 kts | 331° |
| 2026-05-05 04:15 | 29.26784 | -94.85622 | 7 ft | 0 kts | 338° |